Aviation Digital Data Service (ADDS)

Output produced by METARs form (0026 UTC 17 July 2019)
found at http://www.aviationweather.gov/metar/data/
 
TAF SVBC 162200Z 1700/1800 07006KT 9999FEW010 TX35/18Z TN25/08Z 
     BECMG 1600/1604 07008KT 9000 -DZ BKN016
       
TAF SVBM 162200Z 1700/1800 07006KT 9999 FEW013 CB BKN070 TX31/1718Z TN22/1808Z 
     BECMG 1707/1711 09006KT 4000 BRDZ BKN010
       
TAF SVMI 162200Z 1700/1800 07006KT 9999 BKN013 TX33/17Z TN24/08Z 
     BECMG 1604/1608 05005KT 9000 -DZ BKN013
       
TAF SVMC 162200Z 1700/1800 09006KT 9999 SCT013 TX35/18Z TN24/08Z 
     TEMPO 1600/1604 09008KT 9000 DZ BKN013
       
TAF SVMG 162200Z 1600/1800 08012KT 9999 FEW010 TX33/18Z TN25/08Z 
     BECMG 1600/1604 27010KT 9999 SCT010
       
TAF SVJC 162200Z 1700/1800 09012KT 9999 SCT013 TX34/18 TN25/08Z 
     BECMG 1600/1604 09015KT 9999 SCT013 SCT100
       
TAF SVSA 162200Z 1700/1800 11005KT 9999 OVC013 TX32/18Z TN22/08Z 
     TEMPO 1600/1604 18008KT 8000 DZ BKN020